Time;durP1;ratioP1;P1;durP2;ratioP2;P2;SDS_P1;SDS_P2;PMS_P1;PMS_P2;Temp;Humidity;BMP_temperature;BMP_pressure;BME280_temperature;BME280_humidity;BME280_pressure;Samples;Min_cycle;Max_cycle;Signal;HPM_P1;HPM_P2
2021/05/10 00:00:55;;;;;;;9.32;8.13;;;17.10;91.60;;;;;;5098328;28;20445;-68
2021/05/10 00:03:22;;;;;;;8.43;7.57;;;17.10;91.70;;;;;;5096989;28;20078;-68
2021/05/10 00:05:49;;;;;;;8.77;7.63;;;17.10;91.80;;;;;;5091685;28;20487;-68
2021/05/10 00:08:15;;;;;;;10.90;7.75;;;17.00;91.80;;;;;;5083094;28;20127;-68
2021/05/10 00:10:42;;;;;;;9.38;8.10;;;17.00;92.00;;;;;;5090321;28;20108;-69
2021/05/10 00:13:09;;;;;;;8.35;7.55;;;16.90;92.10;;;;;;5096476;28;20048;-69
2021/05/10 00:15:36;;;;;;;9.80;8.80;;;16.90;92.20;;;;;;5087937;28;20027;-69
2021/05/10 00:18:03;;;;;;;12.00;8.10;;;16.90;92.30;;;;;;5097698;28;20557;-69
2021/05/10 00:20:37;;;;;;;9.27;8.38;;;16.80;92.50;;;;;;5089554;28;20394;-69
2021/05/10 00:23:04;;;;;;;9.70;8.70;;;16.80;92.50;;;;;;5073681;28;20114;-69
2021/05/10 00:25:35;;;;;;;9.95;8.43;;;16.80;92.50;;;;;;5095824;28;20082;-69
2021/05/10 00:28:01;;;;;;;10.32;9.32;;;16.70;92.60;;;;;;5096292;28;20068;-69
2021/05/10 00:30:27;;;;;;;8.90;8.00;;;16.70;92.60;;;;;;5094729;28;20038;-68
2021/05/10 00:32:53;;;;;;;11.75;9.63;;;16.70;92.70;;;;;;5090065;28;20447;-68
2021/05/10 00:35:20;;;;;;;8.85;8.05;;;16.60;92.70;;;;;;5092857;28;20059;-68
2021/05/10 00:37:46;;;;;;;8.32;7.53;;;16.60;92.70;;;;;;5095868;28;20061;-68
2021/05/10 00:40:17;;;;;;;9.63;8.57;;;16.70;92.80;;;;;;5092247;28;20027;-68
2021/05/10 00:42:43;;;;;;;8.90;8.10;;;16.70;92.80;;;;;;5100550;28;20059;-68
2021/05/10 00:45:11;;;;;;;9.43;8.32;;;16.60;92.80;;;;;;5093679;28;20039;-68
2021/05/10 00:47:38;;;;;;;8.57;7.72;;;16.70;92.90;;;;;;5097729;28;20105;-68
2021/05/10 00:50:09;;;;;;;9.63;8.73;;;16.60;93.00;;;;;;5100759;28;20564;-68
2021/05/10 00:52:35;;;;;;;10.57;8.38;;;16.60;93.00;;;;;;5080439;28;20043;-68
2021/05/10 00:55:01;;;;;;;10.20;9.18;;;16.60;93.10;;;;;;5100314;28;20036;-68
2021/05/10 00:57:35;;;;;;;9.38;8.27;;;16.60;93.10;;;;;;5074405;28;20110;-68
2021/05/10 01:00:11;;;;;;;11.23;8.93;;;16.60;93.10;;;;;;5102717;28;20782;-68
2021/05/10 01:02:38;;;;;;;10.35;9.25;;;16.60;93.20;;;;;;5093543;28;20032;-68
2021/05/10 01:05:05;;;;;;;10.10;9.15;;;16.50;93.20;;;;;;5098842;28;20042;-68
2021/05/10 01:07:32;;;;;;;10.70;9.70;;;16.60;93.20;;;;;;5090196;28;20044;-68
2021/05/10 01:09:58;;;;;;;9.98;9.07;;;16.60;93.20;;;;;;5081823;28;20222;-68
2021/05/10 01:12:24;;;;;;;10.70;8.85;;;16.60;93.20;;;;;;5090889;28;20043;-68
2021/05/10 01:14:50;;;;;;;11.45;10.25;;;16.50;93.10;;;;;;5096667;28;20119;-68
2021/05/10 01:17:38;;;;;;;10.90;9.32;;;16.60;93.20;;;;;;5078032;28;20336;-68
2021/05/10 01:20:09;;;;;;;11.40;9.68;;;16.60;93.30;;;;;;5101872;28;20089;-68
2021/05/10 01:22:47;;;;;;;10.98;9.82;;;16.60;93.30;;;;;;5092430;28;20051;-68
2021/05/10 01:25:18;;;;;;;10.18;9.15;;;16.60;93.30;;;;;;5100727;28;20093;-68
2021/05/10 01:27:44;;;;;;;10.43;9.43;;;16.50;93.50;;;;;;5096811;28;20024;-68
2021/05/10 01:30:34;;;;;;;10.95;9.95;;;16.50;93.70;;;;;;5100347;28;20142;-68
2021/05/10 01:33:03;;;;;;;11.60;9.52;;;16.50;93.50;;;;;;5095376;28;20036;-68
2021/05/10 01:35:34;;;;;;;11.00;9.07;;;16.40;93.70;;;;;;5104720;28;20036;-68
2021/05/10 01:38:06;;;;;;;10.77;9.52;;;16.40;93.90;;;;;;5095702;28;20107;-69
2021/05/10 01:40:33;;;;;;;11.98;10.63;;;16.40;93.90;;;;;;5096537;28;20036;-68
2021/05/10 01:42:59;;;;;;;10.52;9.45;;;16.40;94.30;;;;;;5089551;28;20510;-68
2021/05/10 01:45:26;;;;;;;10.75;9.73;;;16.40;94.00;;;;;;5095178;28;20055;-68
2021/05/10 01:48:02;;;;;;;10.93;9.82;;;16.30;94.00;;;;;;5096803;28;20400;-68
2021/05/10 01:50:42;;;;;;;10.82;9.43;;;16.30;94.00;;;;;;5102806;28;20040;-68
2021/05/10 01:53:08;;;;;;;8.70;7.90;;;16.40;94.10;;;;;;5091134;28;20119;-68
2021/05/10 01:55:35;;;;;;;11.65;9.25;;;16.40;94.00;;;;;;5103805;28;20489;-68
2021/05/10 01:58:02;;;;;;;9.80;8.80;;;16.30;94.00;;;;;;5089692;28;20039;-68
2021/05/10 02:00:34;;;;;;;9.95;8.95;;;16.40;94.10;;;;;;5098855;28;20031;-68
2021/05/10 02:03:01;;;;;;;10.32;9.13;;;16.40;94.00;;;;;;5093821;28;20161;-68
2021/05/10 02:05:27;;;;;;;11.90;9.60;;;16.40;94.00;;;;;;5103023;28;20035;-68
2021/05/10 02:07:57;;;;;;;9.73;8.70;;;16.30;93.90;;;;;;5098873;28;20553;-69
2021/05/10 02:10:30;;;;;;;10.90;9.80;;;16.40;94.00;;;;;;5093878;28;20055;-69
2021/05/10 02:13:03;;;;;;;11.48;9.05;;;16.30;94.00;;;;;;5096483;28;20411;-69
2021/05/10 02:15:35;;;;;;;9.70;8.80;;;16.30;94.10;;;;;;5094061;28;20032;-68
2021/05/10 02:18:02;;;;;;;11.98;9.05;;;16.30;94.10;;;;;;5099909;28;20036;-69
2021/05/10 02:20:28;;;;;;;10.25;9.10;;;16.30;94.20;;;;;;5094716;28;20035;-68
2021/05/10 02:23:13;;;;;;;11.27;10.20;;;16.30;94.30;;;;;;5082966;28;20061;-68
2021/05/10 02:25:43;;;;;;;10.32;9.32;;;16.30;94.40;;;;;;5091566;28;20031;-68
2021/05/10 02:28:11;;;;;;;10.45;9.43;;;16.30;94.40;;;;;;5102974;28;20028;-68
2021/05/10 02:30:38;;;;;;;10.75;9.32;;;16.20;94.40;;;;;;5097329;28;20040;-68
2021/05/10 02:33:06;;;;;;;10.45;9.25;;;16.20;94.40;;;;;;5101630;28;20040;-68
2021/05/10 02:35:49;;;;;;;10.35;9.38;;;16.20;94.40;;;;;;5093412;28;20122;-68
2021/05/10 02:38:16;;;;;;;10.15;9.25;;;16.10;94.60;;;;;;5101231;28;20040;-68
2021/05/10 02:40:43;;;;;;;10.50;9.60;;;16.10;94.70;;;;;;5093172;28;20044;-68
2021/05/10 02:43:25;;;;;;;12.50;9.77;;;16.10;94.80;;;;;;5096431;28;20448;-68
2021/05/10 02:45:51;;;;;;;11.45;10.23;;;16.00;94.90;;;;;;5095157;28;20089;-68
2021/05/10 02:48:17;;;;;;;11.13;10.05;;;16.00;94.90;;;;;;5081229;28;20113;-68
2021/05/10 02:50:43;;;;;;;9.73;8.77;;;16.00;95.00;;;;;;5097667;28;20138;-68
2021/05/10 02:53:09;;;;;;;10.23;9.23;;;16.00;95.20;;;;;;5093683;28;20064;-68
2021/05/10 02:55:35;;;;;;;9.38;8.48;;;15.90;95.10;;;;;;5092605;28;20063;-68
2021/05/10 02:58:01;;;;;;;10.00;9.10;;;15.90;95.10;;;;;;5100806;28;20044;-68
2021/05/10 03:00:28;;;;;;;9.52;8.60;;;16.00;95.10;;;;;;5091606;28;20032;-68
2021/05/10 03:02:56;;;;;;;9.30;8.25;;;16.00;95.10;;;;;;5098564;28;20036;-68
2021/05/10 03:05:24;;;;;;;11.75;8.55;;;16.00;95.10;;;;;;5100818;28;20109;-68
2021/05/10 03:07:50;;;;;;;10.05;8.63;;;16.10;95.40;;;;;;5100065;28;20161;-68
2021/05/10 03:10:18;;;;;;;8.93;8.02;;;16.00;95.00;;;;;;5095793;28;20600;-68
2021/05/10 03:12:45;;;;;;;8.95;8.15;;;16.00;94.90;;;;;;5091935;28;20088;-68
2021/05/10 03:15:15;;;;;;;11.85;8.27;;;16.10;94.80;;;;;;5102775;28;20043;-68
2021/05/10 03:17:41;;;;;;;9.43;8.52;;;16.10;94.70;;;;;;5090668;28;20103;-68
2021/05/10 03:20:10;;;;;;;9.70;8.70;;;16.10;94.70;;;;;;5099711;28;20169;-68
2021/05/10 03:22:36;;;;;;;10.30;8.75;;;16.20;94.70;;;;;;5092075;28;20028;-68
2021/05/10 03:25:03;;;;;;;9.57;8.65;;;16.10;94.60;;;;;;5102317;28;20122;-68
2021/05/10 03:27:37;;;;;;;9.80;8.85;;;16.20;94.60;;;;;;5094686;28;20115;-69
2021/05/10 03:30:04;;;;;;;10.13;9.13;;;16.20;94.60;;;;;;5096642;28;20559;-69
2021/05/10 03:32:30;;;;;;;11.23;9.25;;;16.20;94.70;;;;;;5092431;28;20115;-68
2021/05/10 03:34:56;;;;;;;10.63;9.52;;;16.20;94.70;;;;;;5100116;28;20067;-68
2021/05/10 03:37:21;;;;;;;10.35;9.35;;;16.20;94.80;;;;;;5091549;28;20074;-68
2021/05/10 03:39:47;;;;;;;10.32;9.38;;;16.20;94.80;;;;;;5095440;28;20038;-68
2021/05/10 03:42:13;;;;;;;11.90;9.88;;;16.10;94.90;;;;;;5091524;28;20118;-68
2021/05/10 03:44:42;;;;;;;10.00;9.00;;;16.10;95.00;;;;;;5096697;28;20067;-68
2021/05/10 03:47:08;;;;;;;11.15;10.07;;;16.10;95.10;;;;;;5094016;28;20072;-68
2021/05/10 03:49:33;;;;;;;10.15;9.25;;;16.10;95.30;;;;;;5099070;28;20070;-68
2021/05/10 03:51:59;;;;;;;11.43;9.90;;;16.00;95.30;;;;;;5094786;28;20059;-68
2021/05/10 03:54:25;;;;;;;14.60;10.32;;;16.10;95.40;;;;;;5090223;28;20059;-68
2021/05/10 03:56:51;;;;;;;10.65;9.68;;;16.00;95.40;;;;;;5098411;28;20110;-68
2021/05/10 03:59:18;;;;;;;10.52;9.57;;;16.00;95.40;;;;;;5094083;28;20147;-68
2021/05/10 04:01:44;;;;;;;11.20;10.07;;;16.00;95.40;;;;;;5097870;28;20479;-68
2021/05/10 04:14:32;;;;;;;10.52;9.52;;;16.00;95.40;;;;;;5095438;28;20119;-68
2021/05/10 04:16:59;;;;;;;11.05;9.95;;;16.00;95.30;;;;;;5099769;28;20067;-68
2021/05/10 04:19:25;;;;;;;9.52;8.73;;;16.00;95.40;;;;;;5094088;28;20027;-68
2021/05/10 04:21:51;;;;;;;8.40;7.55;;;16.00;95.30;;;;;;5092924;28;20064;-68
2021/05/10 04:24:17;;;;;;;9.07;8.27;;;16.00;95.20;;;;;;5087902;28;20112;-68
2021/05/10 04:26:43;;;;;;;9.77;7.43;;;16.00;95.10;;;;;;5098643;28;20075;-68
2021/05/10 04:29:09;;;;;;;8.85;7.95;;;16.10;95.00;;;;;;5092040;28;20054;-68
2021/05/10 04:31:36;;;;;;;8.60;6.45;;;16.10;94.80;;;;;;5083143;28;20042;-68
2021/05/10 04:34:01;;;;;;;12.18;8.73;;;16.10;94.50;;;;;;5089110;28;20028;-69
2021/05/10 04:36:27;;;;;;;6.13;5.22;;;16.20;94.30;;;;;;5097130;28;20027;-68
2021/05/10 04:38:53;;;;;;;7.43;4.55;;;16.20;94.00;;;;;;5100204;28;20036;-68
2021/05/10 04:41:19;;;;;;;5.72;4.38;;;16.30;93.70;;;;;;5094701;28;20482;-68
2021/05/10 04:43:44;;;;;;;6.60;4.50;;;16.30;93.50;;;;;;5099288;28;20060;-68
2021/05/10 04:46:11;;;;;;;8.65;7.47;;;16.30;93.30;;;;;;5089852;28;20040;-68
2021/05/10 04:48:37;;;;;;;4.78;3.63;;;16.40;93.00;;;;;;5100424;28;20108;-68
2021/05/10 04:51:03;;;;;;;15.27;12.48;;;16.40;92.60;;;;;;5091791;28;20733;-68
2021/05/10 04:53:29;;;;;;;6.65;3.78;;;16.50;92.40;;;;;;5104025;28;22956;-68
2021/05/10 04:55:55;;;;;;;4.45;2.60;;;16.60;92.20;;;;;;5092723;28;20139;-68
2021/05/10 04:58:21;;;;;;;5.65;2.70;;;16.60;91.50;;;;;;5103587;28;20126;-68
2021/05/10 05:00:50;;;;;;;9.13;2.28;;;16.80;91.30;;;;;;5097850;28;20060;-68
2021/05/10 05:03:16;;;;;;;4.95;2.10;;;16.90;90.80;;;;;;5106143;28;20067;-68
2021/05/10 05:05:43;;;;;;;5.57;1.92;;;17.00;90.60;;;;;;5093708;27;20458;-68
2021/05/10 05:08:09;;;;;;;5.90;3.40;;;17.10;90.60;;;;;;5101972;28;20075;-68
2021/05/10 05:10:34;;;;;;;4.70;1.70;;;17.40;90.40;;;;;;5098733;28;20044;-68
2021/05/10 05:13:02;;;;;;;6.18;2.10;;;17.60;89.40;;;;;;5099693;28;20593;-68
2021/05/10 05:15:28;;;;;;;4.80;1.75;;;17.70;87.80;;;;;;5102716;28;20038;-68
2021/05/10 05:17:54;;;;;;;3.53;1.20;;;17.90;87.50;;;;;;5100733;28;20072;-68
2021/05/10 05:20:20;;;;;;;2.83;1.40;;;18.10;86.70;;;;;;5100996;27;20506;-67
2021/05/10 05:22:46;;;;;;;5.85;1.98;;;18.30;85.20;;;;;;5090882;28;20032;-68
2021/05/10 05:25:13;;;;;;;3.35;1.35;;;18.30;83.40;;;;;;5103674;28;20220;-68
2021/05/10 05:27:39;;;;;;;4.80;1.35;;;18.40;83.10;;;;;;5096695;28;20051;-68
2021/05/10 05:30:07;;;;;;;2.85;1.20;;;18.40;83.50;;;;;;5098502;28;20178;-68
2021/05/10 05:32:36;;;;;;;2.67;1.00;;;18.40;83.60;;;;;;5092867;28;20032;-68
2021/05/10 05:35:04;;;;;;;4.78;1.15;;;18.50;83.70;;;;;;5105625;28;20027;-68
2021/05/10 05:37:30;;;;;;;4.28;1.38;;;18.50;83.40;;;;;;5093707;28;20039;-68
2021/05/10 05:39:55;;;;;;;3.55;1.23;;;18.60;83.10;;;;;;5103260;28;20526;-68
2021/05/10 05:42:21;;;;;;;2.47;0.85;;;18.70;81.90;;;;;;5092116;28;20028;-68
2021/05/10 05:44:53;;;;;;;5.13;1.40;;;18.80;81.50;;;;;;5087700;28;20483;-68
2021/05/10 05:47:25;;;;;;;4.63;1.17;;;19.00;81.60;;;;;;5092775;28;20035;-68
2021/05/10 05:49:51;;;;;;;6.75;1.25;;;19.10;80.20;;;;;;5097611;28;20117;-68
2021/05/10 05:52:18;;;;;;;6.13;1.33;;;19.20;80.40;;;;;;5099457;28;20121;-68
2021/05/10 05:54:44;;;;;;;2.92;0.93;;;19.30;78.60;;;;;;5095766;28;20032;-68
2021/05/10 05:57:10;;;;;;;3.53;1.08;;;19.40;78.30;;;;;;5094161;28;20040;-68
2021/05/10 05:59:36;;;;;;;5.20;1.25;;;19.40;77.90;;;;;;5096906;28;20471;-68
2021/05/10 06:02:01;;;;;;;3.67;1.08;;;19.50;77.60;;;;;;5102705;27;20435;-68
2021/05/10 06:04:27;;;;;;;3.35;1.20;;;19.50;76.90;;;;;;5097302;28;20038;-68
2021/05/10 06:06:53;;;;;;;2.25;0.90;;;19.50;76.00;;;;;;5098024;28;20048;-68
2021/05/10 06:09:22;;;;;;;4.63;1.17;;;19.60;75.90;;;;;;5088458;28;20472;-68
2021/05/10 06:11:48;;;;;;;3.03;0.82;;;19.60;74.90;;;;;;5104250;28;20046;-68
2021/05/10 06:14:14;;;;;;;4.63;1.30;;;19.60;73.30;;;;;;5075149;28;20543;-68
2021/05/10 06:16:40;;;;;;;6.35;1.02;;;19.60;73.20;;;;;;5100959;28;20116;-68
2021/05/10 06:19:09;;;;;;;3.60;1.23;;;19.60;73.30;;;;;;5099488;28;20088;-68
2021/05/10 06:21:35;;;;;;;10.27;1.33;;;19.60;73.50;;;;;;5096039;28;20032;-68
2021/05/10 06:24:03;;;;;;;2.67;0.70;;;19.60;73.30;;;;;;5095105;28;20042;-68
2021/05/10 06:26:28;;;;;;;3.83;0.93;;;19.60;73.80;;;;;;5099263;28;20049;-68
2021/05/10 06:28:55;;;;;;;3.33;0.77;;;19.50;74.30;;;;;;5096998;28;20587;-68
2021/05/10 06:31:20;;;;;;;5.28;0.82;;;19.50;72.90;;;;;;5100558;28;20111;-68
2021/05/10 06:33:47;;;;;;;2.42;0.80;;;19.50;72.70;;;;;;5095529;28;20046;-68
2021/05/10 06:36:13;;;;;;;2.92;0.80;;;19.50;73.00;;;;;;5100290;28;20089;-68
2021/05/10 06:38:39;;;;;;;1.60;0.70;;;19.50;72.10;;;;;;5101050;28;20075;-68
2021/05/10 06:41:05;;;;;;;3.25;1.00;;;19.50;71.50;;;;;;5099022;28;20071;-68
2021/05/10 06:43:31;;;;;;;2.75;0.80;;;19.50;71.70;;;;;;5102366;28;20043;-68
2021/05/10 06:45:57;;;;;;;3.97;1.00;;;19.50;71.80;;;;;;5095660;28;20093;-68
2021/05/10 06:48:30;;;;;;;4.78;1.10;;;19.50;71.60;;;;;;5097823;28;20118;-68
2021/05/10 06:50:57;;;;;;;2.70;0.82;;;19.60;71.00;;;;;;5096408;28;20218;-68
2021/05/10 06:53:23;;;;;;;5.43;1.05;;;19.70;70.80;;;;;;5098401;28;20039;-68
2021/05/10 06:55:52;;;;;;;2.58;0.75;;;19.60;71.10;;;;;;5072810;28;20059;-68
2021/05/10 06:58:19;;;;;;;3.53;0.65;;;19.80;70.80;;;;;;5099331;28;20093;-68
2021/05/10 07:00:46;;;;;;;2.30;0.80;;;19.80;70.70;;;;;;5095694;28;20407;-68
2021/05/10 07:03:12;;;;;;;4.93;0.80;;;19.90;69.80;;;;;;5102048;28;20052;-68
2021/05/10 07:05:38;;;;;;;3.00;0.75;;;20.00;70.00;;;;;;5098444;28;20031;-68
2021/05/10 07:08:14;;;;;;;3.80;0.60;;;20.10;70.10;;;;;;5101395;28;20088;-68
2021/05/10 07:10:40;;;;;;;3.42;0.50;;;20.30;69.30;;;;;;5091629;28;20047;-68
2021/05/10 07:13:07;;;;;;;3.80;1.02;;;20.60;69.00;;;;;;5106896;28;20126;-68
2021/05/10 07:15:34;;;;;;;3.65;0.65;;;20.90;66.80;;;;;;5096877;27;20408;-68
2021/05/10 07:18:10;;;;;;;4.18;0.73;;;21.00;66.00;;;;;;5103510;28;20078;-68
2021/05/10 07:20:37;;;;;;;3.88;0.40;;;21.00;66.10;;;;;;5090339;28;20115;-69
2021/05/10 07:23:05;;;;;;;2.58;0.40;;;21.00;66.80;;;;;;5099633;28;20043;-68
2021/05/10 07:25:32;;;;;;;2.42;0.50;;;21.00;67.00;;;;;;5090793;28;20032;-68
2021/05/10 07:27:58;;;;;;;2.30;0.77;;;21.10;67.70;;;;;;5092328;28;20060;-68
2021/05/10 07:30:25;;;;;;;3.47;0.55;;;21.30;67.80;;;;;;5084513;28;20056;-68
2021/05/10 07:32:51;;;;;;;2.88;0.20;;;21.50;67.30;;;;;;5097479;28;20031;-68
2021/05/10 07:35:17;;;;;;;3.85;0.30;;;21.50;67.10;;;;;;5098699;28;20070;-67
2021/05/10 07:37:42;;;;;;;1.65;0.20;;;21.40;65.30;;;;;;5094127;28;20039;-68
2021/05/10 07:40:18;;;;;;;0.88;0.10;;;21.10;64.80;;;;;;5094836;28;20134;-68
2021/05/10 07:42:44;;;;;;;0.95;0.20;;;20.70;64.60;;;;;;5099719;28;20048;-68
2021/05/10 07:45:11;;;;;;;0.40;0.10;;;20.50;64.80;;;;;;5096313;28;20035;-67
2021/05/10 07:47:37;;;;;;;0.55;0.10;;;20.30;65.20;;;;;;5091698;28;20035;-68
2021/05/10 07:50:04;;;;;;;3.40;0.20;;;20.20;65.80;;;;;;5097821;28;20122;-68
2021/05/10 07:52:29;;;;;;;1.02;0.10;;;20.10;66.10;;;;;;5090873;28;20117;-68
2021/05/10 07:54:56;;;;;;;1.58;0.10;;;20.00;66.40;;;;;;5092773;28;20052;-68
2021/05/10 07:57:25;;;;;;;0.40;0.10;;;19.90;66.70;;;;;;5093233;28;20123;-68
2021/05/10 07:59:52;;;;;;;0.52;0.10;;;19.80;67.30;;;;;;5100355;28;20038;-68
2021/05/10 08:02:22;;;;;;;0.50;0.10;;;19.70;67.70;;;;;;5096160;28;22562;-68
2021/05/10 08:04:52;;;;;;;0.30;0.10;;;19.50;68.40;;;;;;5101220;28;20039;-68
2021/05/10 08:07:19;;;;;;;2.08;0.57;;;19.50;69.00;;;;;;5092944;28;20089;-68
2021/05/10 08:09:45;;;;;;;7.00;2.15;;;19.50;69.50;;;;;;5097395;28;20040;-68
2021/05/10 08:12:12;;;;;;;1.35;0.20;;;19.60;70.40;;;;;;5096924;28;20044;-68
2021/05/10 08:14:38;;;;;;;1.95;0.38;;;19.70;69.80;;;;;;5095438;28;20031;-68
2021/05/10 08:17:04;;;;;;;2.10;0.10;;;19.90;70.60;;;;;;5098924;28;20031;-68
2021/05/10 08:19:30;;;;;;;0.47;0.10;;;20.10;70.40;;;;;;5087203;28;20177;-68
2021/05/10 08:21:58;;;;;;;0.45;0.22;;;20.40;69.80;;;;;;5081315;28;20075;-68
2021/05/10 08:24:24;;;;;;;1.58;0.20;;;20.50;69.50;;;;;;5074659;28;20059;-67
2021/05/10 08:26:50;;;;;;;2.03;0.20;;;20.60;68.00;;;;;;5095569;28;20353;-67
2021/05/10 08:29:16;;;;;;;0.55;0.20;;;20.40;68.00;;;;;;5092795;28;20042;-67
2021/05/10 08:31:45;;;;;;;2.30;0.52;;;20.30;68.40;;;;;;5099939;28;20425;-68
2021/05/10 08:34:11;;;;;;;1.48;0.22;;;20.10;68.60;;;;;;5094985;27;20096;-68
2021/05/10 08:36:37;;;;;;;0.75;0.20;;;19.90;70.20;;;;;;5102066;28;20040;-68
2021/05/10 08:39:08;;;;;;;1.02;0.30;;;19.70;70.80;;;;;;5093400;28;20453;-68
2021/05/10 08:41:34;;;;;;;1.42;0.28;;;19.60;71.50;;;;;;5095242;28;20063;-68
2021/05/10 08:44:03;;;;;;;2.13;0.40;;;19.50;72.40;;;;;;5093924;28;20428;-68
2021/05/10 08:46:30;;;;;;;1.60;0.30;;;19.60;74.20;;;;;;5101460;28;20463;-68
2021/05/10 08:48:56;;;;;;;1.15;0.35;;;20.10;74.50;;;;;;5098570;28;20067;-68
2021/05/10 08:51:22;;;;;;;1.13;0.28;;;20.40;73.90;;;;;;5102533;28;20078;-68
2021/05/10 08:53:48;;;;;;;1.25;0.40;;;20.60;72.30;;;;;;5104037;28;20043;-68
2021/05/10 08:56:14;;;;;;;2.05;0.35;;;20.70;71.80;;;;;;5094338;28;20039;-67
2021/05/10 08:58:42;;;;;;;1.42;0.50;;;20.60;71.00;;;;;;5102162;28;20036;-68
2021/05/10 09:01:09;;;;;;;2.95;0.50;;;20.40;68.60;;;;;;5098081;28;20043;-68
2021/05/10 09:03:44;;;;;;;2.80;0.40;;;20.10;69.00;;;;;;5101547;28;20546;-67
2021/05/10 09:06:12;;;;;;;1.00;0.57;;;19.90;70.50;;;;;;5092302;28;20453;-67
2021/05/10 09:08:43;;;;;;;1.98;0.60;;;19.90;73.30;;;;;;5102328;28;20121;-68
2021/05/10 09:11:14;;;;;;;2.75;0.60;;;20.30;73.80;;;;;;5095229;28;20107;-68
2021/05/10 09:13:45;;;;;;;3.05;0.52;;;20.60;70.30;;;;;;5101665;28;20047;-68
2021/05/10 09:16:13;;;;;;;2.17;0.60;;;20.80;69.40;;;;;;5101246;28;20452;-68
2021/05/10 09:18:40;;;;;;;2.10;0.50;;;20.80;69.00;;;;;;5103110;28;20040;-68
2021/05/10 09:21:31;;;;;;;2.30;0.40;;;20.70;69.10;;;;;;5097366;28;20042;-68
2021/05/10 09:23:58;;;;;;;2.97;0.63;;;20.70;68.20;;;;;;5096485;28;20092;-73
2021/05/10 09:26:28;;;;;;;2.17;0.60;;;20.60;68.70;;;;;;5097968;28;20032;-68
2021/05/10 09:28:54;;;;;;;2.83;0.50;;;20.60;67.90;;;;;;5102970;28;20449;-68
2021/05/10 09:31:19;;;;;;;2.10;0.60;;;20.40;68.50;;;;;;5092411;28;20040;-68
2021/05/10 09:33:47;;;;;;;1.67;0.50;;;20.30;68.90;;;;;;5089890;28;20581;-68
2021/05/10 09:36:37;;;;;;;2.47;0.60;;;20.30;69.30;;;;;;5097757;27;20038;-68
2021/05/10 09:39:27;;;;;;;2.30;0.82;;;20.40;70.20;;;;;;5082431;28;20106;-68
2021/05/10 09:42:02;;;;;;;2.75;0.60;;;20.30;70.10;;;;;;5094831;28;20137;-68
2021/05/10 09:44:41;;;;;;;1.33;0.40;;;20.20;69.60;;;;;;5100669;28;20364;-68
2021/05/10 09:47:07;;;;;;;1.25;0.40;;;20.00;69.00;;;;;;5097060;28;20036;-69
2021/05/10 09:49:47;;;;;;;1.30;0.47;;;19.80;70.30;;;;;;5103922;28;20131;-68
2021/05/10 09:52:21;;;;;;;2.78;0.47;;;19.70;70.50;;;;;;5096956;28;20494;-68
2021/05/10 09:55:01;;;;;;;1.45;0.38;;;19.50;71.40;;;;;;5096633;28;20042;-68
2021/05/10 09:57:28;;;;;;;4.18;0.60;;;19.40;71.70;;;;;;5095417;28;20062;-68
2021/05/10 10:00:13;;;;;;;0.47;0.35;;;19.40;72.70;;;;;;5099719;28;20067;-68
2021/05/10 10:02:39;;;;;;;2.58;0.60;;;19.30;72.80;;;;;;5097792;28;20364;-68
2021/05/10 10:05:06;;;;;;;1.17;0.38;;;19.00;75.40;;;;;;5101739;28;20047;-68
2021/05/10 10:07:34;;;;;;;1.13;0.40;;;18.70;76.10;;;;;;5095234;28;20407;-67
2021/05/10 10:10:00;;;;;;;0.98;0.30;;;18.30;75.50;;;;;;5102686;28;20047;-68
2021/05/10 10:12:27;;;;;;;1.85;0.30;;;17.90;75.70;;;;;;5096265;28;20078;-67
2021/05/10 10:14:53;;;;;;;1.08;0.40;;;17.60;75.70;;;;;;5098031;28;20032;-67
2021/05/10 10:17:19;;;;;;;1.88;0.40;;;17.40;75.40;;;;;;5094561;28;20036;-67
2021/05/10 10:19:45;;;;;;;2.17;0.60;;;17.30;77.10;;;;;;5106515;28;20078;-67
2021/05/10 10:22:14;;;;;;;1.35;0.30;;;17.10;78.70;;;;;;5083896;28;20067;-67
2021/05/10 10:24:42;;;;;;;0.60;0.30;;;17.00;79.70;;;;;;5098994;28;20118;-67
2021/05/10 10:27:10;;;;;;;1.80;0.45;;;16.90;81.00;;;;;;5104806;28;20050;-67
2021/05/10 10:29:38;;;;;;;1.33;0.50;;;16.80;81.80;;;;;;5097503;28;20150;-67
2021/05/10 10:32:05;;;;;;;1.85;0.38;;;16.70;82.00;;;;;;5098080;28;20036;-67
2021/05/10 10:34:36;;;;;;;1.35;0.50;;;16.70;81.80;;;;;;5094566;28;20043;-67
2021/05/10 10:37:04;;;;;;;3.08;0.68;;;16.70;82.80;;;;;;5099363;28;20144;-67
2021/05/10 10:39:32;;;;;;;0.65;0.30;;;16.80;82.90;;;;;;5097990;28;20047;-68
2021/05/10 10:42:09;;;;;;;0.80;0.40;;;17.00;82.00;;;;;;5099848;28;20036;-68
2021/05/10 10:44:39;;;;;;;2.90;0.40;;;17.10;81.10;;;;;;5097541;28;20471;-67
2021/05/10 10:47:07;;;;;;;2.15;0.30;;;17.30;80.90;;;;;;5105302;28;20127;-67
2021/05/10 10:49:35;;;;;;;1.58;0.60;;;17.30;80.70;;;;;;5096592;28;20036;-67
2021/05/10 10:52:02;;;;;;;1.05;0.50;;;17.30;81.00;;;;;;5057547;28;20132;-67
2021/05/10 10:54:30;;;;;;;1.58;0.50;;;17.30;81.70;;;;;;5056161;28;20467;-68
2021/05/10 10:56:59;;;;;;;1.80;0.70;;;17.30;81.80;;;;;;5061431;28;20492;-67
2021/05/10 10:59:30;;;;;;;0.88;0.50;;;17.30;82.50;;;;;;5057638;28;20062;-67
2021/05/10 11:01:57;;;;;;;1.42;0.73;;;17.20;83.00;;;;;;5060788;28;20441;-67
2021/05/10 11:04:29;;;;;;;1.25;0.68;;;17.20;83.80;;;;;;5055499;28;20416;-67
2021/05/10 11:06:56;;;;;;;2.70;1.02;;;17.30;84.10;;;;;;5059653;28;20134;-67
2021/05/10 11:09:46;;;;;;;1.52;0.70;;;17.40;84.90;;;;;;5053129;28;20063;-68
2021/05/10 11:12:47;;;;;;;2.35;0.80;;;17.50;84.90;;;;;;5057133;28;20546;-67
2021/05/10 11:15:34;;;;;;;1.35;0.68;;;17.50;84.80;;;;;;5058433;28;20036;-68
2021/05/10 11:18:00;;;;;;;1.63;0.80;;;17.40;85.10;;;;;;5060672;28;20106;-67
2021/05/10 11:20:43;;;;;;;2.13;0.95;;;17.50;85.40;;;;;;5047391;28;20029;-67
2021/05/10 11:23:24;;;;;;;1.25;0.80;;;17.60;85.20;;;;;;5071455;28;20127;-67
2021/05/10 11:25:55;;;;;;;1.38;0.60;;;17.80;84.80;;;;;;5049355;28;20056;-67
2021/05/10 11:28:30;;;;;;;1.83;0.90;;;17.90;83.60;;;;;;5059003;28;20044;-67
2021/05/10 11:31:07;;;;;;;1.52;0.80;;;17.90;82.40;;;;;;5053881;28;20497;-67
2021/05/10 11:33:54;;;;;;;1.38;0.90;;;17.90;82.50;;;;;;5056356;28;20408;-67
2021/05/10 11:36:25;;;;;;;3.13;1.00;;;18.00;82.20;;;;;;5051124;28;20055;-67
2021/05/10 11:39:25;;;;;;;2.45;1.00;;;18.00;82.20;;;;;;5057153;28;20133;-67
2021/05/10 11:42:00;;;;;;;2.30;0.93;;;18.00;82.40;;;;;;5050421;28;20060;-67
2021/05/10 11:44:37;;;;;;;3.25;1.15;;;18.10;81.70;;;;;;5063937;28;20503;-67
2021/05/10 11:47:05;;;;;;;2.35;0.75;;;18.10;81.80;;;;;;5051444;28;20037;-67
2021/05/10 11:49:35;;;;;;;2.72;1.00;;;18.10;81.80;;;;;;5061052;28;20538;-67
2021/05/10 11:52:18;;;;;;;2.72;1.05;;;18.10;81.30;;;;;;5092690;28;20040;-67
2021/05/10 11:54:50;;;;;;;1.95;1.05;;;18.20;81.00;;;;;;5102672;28;20511;-67
2021/05/10 11:57:30;;;;;;;1.98;1.02;;;18.10;80.80;;;;;;5089393;28;20051;-67
2021/05/10 12:02:32;;;;;;;2.78;1.00;;;17.90;81.30;;;;;;5095120;28;20047;-68
2021/05/10 12:05:03;;;;;;;3.38;1.45;;;17.80;81.60;;;;;;5101256;28;20050;-67
2021/05/10 12:07:30;;;;;;;2.03;1.08;;;17.70;81.40;;;;;;5075078;28;20097;-67
2021/05/10 12:10:20;;;;;;;3.72;1.30;;;17.70;81.70;;;;;;5098848;28;20042;-68
2021/05/10 12:12:47;;;;;;;4.63;1.52;;;17.60;82.20;;;;;;5096460;28;20138;-67
2021/05/10 12:15:18;;;;;;;4.32;1.67;;;17.50;82.40;;;;;;5100176;28;20070;-67
2021/05/10 12:17:50;;;;;;;3.63;1.58;;;17.50;82.80;;;;;;5091795;28;20040;-67
2021/05/10 12:20:18;;;;;;;2.60;1.30;;;17.30;83.40;;;;;;5094693;28;20040;-67
2021/05/10 12:22:49;;;;;;;3.40;1.45;;;17.30;83.90;;;;;;5092970;28;20370;-67
2021/05/10 12:25:24;;;;;;;3.45;1.77;;;17.30;84.40;;;;;;5095113;28;20492;-67
2021/05/10 12:28:16;;;;;;;3.70;1.80;;;17.30;84.40;;;;;;5093142;28;20036;-67
2021/05/10 12:30:44;;;;;;;3.95;1.48;;;17.30;84.40;;;;;;5097642;28;20437;-67
2021/05/10 12:33:15;;;;;;;3.75;1.80;;;17.20;84.00;;;;;;5094852;28;20066;-67
2021/05/10 12:36:04;;;;;;;3.40;1.80;;;17.10;84.20;;;;;;5095260;28;20550;-67
2021/05/10 12:38:37;;;;;;;4.35;2.05;;;17.00;86.10;;;;;;5082031;28;20052;-67
2021/05/10 12:41:08;;;;;;;3.60;1.55;;;16.90;87.10;;;;;;5095164;28;20036;-67
2021/05/10 12:43:45;;;;;;;3.22;1.45;;;16.80;87.00;;;;;;5092384;28;20113;-67
2021/05/10 12:46:11;;;;;;;3.55;1.35;;;16.70;84.90;;;;;;5100182;28;20047;-67
2021/05/10 12:48:43;;;;;;;4.40;1.25;;;16.60;84.10;;;;;;5094719;28;20052;-67
2021/05/10 12:51:14;;;;;;;3.00;0.80;;;16.60;82.80;;;;;;5098082;28;20052;-67
2021/05/10 12:53:56;;;;;;;3.03;0.85;;;16.50;80.00;;;;;;5087987;28;20047;-67
2021/05/10 12:56:23;;;;;;;3.35;0.68;;;16.40;80.80;;;;;;5099994;28;20054;-67
2021/05/10 12:58:53;;;;;;;3.42;0.93;;;16.40;81.40;;;;;;5095806;28;20040;-67
2021/05/10 13:01:26;;;;;;;6.53;1.08;;;16.40;81.10;;;;;;5094885;28;20598;-67
2021/05/10 13:03:59;;;;;;;5.40;1.08;;;16.30;80.20;;;;;;5091838;28;20076;-67
2021/05/10 13:06:33;;;;;;;4.65;1.27;;;16.30;80.80;;;;;;5102681;28;20043;-67
2021/05/10 13:09:00;;;;;;;3.27;1.17;;;16.20;80.60;;;;;;5092591;28;20120;-67